sensor_id;sensor_type;location;lat;lon;timestamp;temperature;humidity
49441;DHT22;35317;51.978;6.296;2022-11-15T00:04:38;8.90;99.90
49441;DHT22;35317;51.978;6.296;2022-11-15T00:09:39;8.90;99.90
49441;DHT22;35317;51.978;6.296;2022-11-15T00:14:39;8.90;99.90
49441;DHT22;35317;51.978;6.296;2022-11-15T00:19:40;9.00;99.90
49441;DHT22;35317;51.978;6.296;2022-11-15T00:24:41;9.00;99.90
49441;DHT22;35317;51.978;6.296;2022-11-15T00:29:42;9.00;99.90
49441;DHT22;35317;51.978;6.296;2022-11-15T00:34:45;9.10;99.90
49441;DHT22;35317;51.978;6.296;2022-11-15T00:39:46;9.10;99.90
49441;DHT22;35317;51.978;6.296;2022-11-15T00:44:48;9.20;99.90
49441;DHT22;35317;51.978;6.296;2022-11-15T00:49:49;9.20;99.90
49441;DHT22;35317;51.978;6.296;2022-11-15T00:54:50;9.30;99.90
49441;DHT22;35317;51.978;6.296;2022-11-15T00:59:50;9.30;99.90
49441;DHT22;35317;51.978;6.296;2022-11-15T01:04:51;9.30;99.90
49441;DHT22;35317;51.978;6.296;2022-11-15T01:09:52;9.30;99.90
49441;DHT22;35317;51.978;6.296;2022-11-15T01:14:52;9.40;99.90
49441;DHT22;35317;51.978;6.296;2022-11-15T01:19:53;9.40;99.90
49441;DHT22;35317;51.978;6.296;2022-11-15T01:24:54;9.40;99.90
49441;DHT22;35317;51.978;6.296;2022-11-15T01:29:55;9.50;99.90
49441;DHT22;35317;51.978;6.296;2022-11-15T01:34:55;9.50;99.90
49441;DHT22;35317;51.978;6.296;2022-11-15T01:39:56;9.50;99.90
49441;DHT22;35317;51.978;6.296;2022-11-15T01:44:57;9.50;99.90
49441;DHT22;35317;51.978;6.296;2022-11-15T01:50:08;9.60;99.90
49441;DHT22;35317;51.978;6.296;2022-11-15T01:55:14;9.60;99.90
49441;DHT22;35317;51.978;6.296;2022-11-15T02:00:18;9.70;99.90
49441;DHT22;35317;51.978;6.296;2022-11-15T02:05:18;9.70;99.90
49441;DHT22;35317;51.978;6.296;2022-11-15T02:10:22;9.80;99.90
49441;DHT22;35317;51.978;6.296;2022-11-15T02:15:27;9.80;99.90
49441;DHT22;35317;51.978;6.296;2022-11-15T02:20:44;9.90;99.90
49441;DHT22;35317;51.978;6.296;2022-11-15T02:31:59;9.90;99.90
49441;DHT22;35317;51.978;6.296;2022-11-15T02:42:36;10.10;99.90
49441;DHT22;35317;51.978;6.296;2022-11-15T02:48:11;10.10;99.90
49441;DHT22;35317;51.978;6.296;2022-11-15T02:53:14;10.10;99.90
49441;DHT22;35317;51.978;6.296;2022-11-15T02:58:32;10.20;99.90
49441;DHT22;35317;51.978;6.296;2022-11-15T03:05:02;10.20;99.90
49441;DHT22;35317;51.978;6.296;2022-11-15T03:10:14;10.30;99.90
49441;DHT22;35317;51.978;6.296;2022-11-15T03:15:28;10.30;99.90
49441;DHT22;35317;51.978;6.296;2022-11-15T03:20:30;10.40;99.90
49441;DHT22;35317;51.978;6.296;2022-11-15T03:25:34;10.40;99.90
49441;DHT22;35317;51.978;6.296;2022-11-15T03:30:39;10.50;99.90
49441;DHT22;35317;51.978;6.296;2022-11-15T03:35:44;10.50;99.90
49441;DHT22;35317;51.978;6.296;2022-11-15T03:40:55;10.50;99.90
49441;DHT22;35317;51.978;6.296;2022-11-15T03:46:03;10.60;99.90
49441;DHT22;35317;51.978;6.296;2022-11-15T03:51:06;10.60;99.90
49441;DHT22;35317;51.978;6.296;2022-11-15T03:56:07;10.60;99.90
49441;DHT22;35317;51.978;6.296;2022-11-15T04:01:07;10.70;99.90
49441;DHT22;35317;51.978;6.296;2022-11-15T04:06:08;10.70;99.90
49441;DHT22;35317;51.978;6.296;2022-11-15T04:11:09;10.70;99.90
49441;DHT22;35317;51.978;6.296;2022-11-15T04:16:10;10.80;99.90
49441;DHT22;35317;51.978;6.296;2022-11-15T04:21:11;10.90;99.90
49441;DHT22;35317;51.978;6.296;2022-11-15T04:26:30;10.90;99.90
49441;DHT22;35317;51.978;6.296;2022-11-15T04:31:31;11.00;99.90
49441;DHT22;35317;51.978;6.296;2022-11-15T04:36:32;11.00;99.90
49441;DHT22;35317;51.978;6.296;2022-11-15T04:41:51;11.00;99.90
49441;DHT22;35317;51.978;6.296;2022-11-15T04:46:52;11.10;99.90
49441;DHT22;35317;51.978;6.296;2022-11-15T04:51:53;11.20;99.90
49441;DHT22;35317;51.978;6.296;2022-11-15T04:56:53;11.20;99.90
49441;DHT22;35317;51.978;6.296;2022-11-15T05:01:54;11.20;99.90
49441;DHT22;35317;51.978;6.296;2022-11-15T05:06:55;11.30;99.90
49441;DHT22;35317;51.978;6.296;2022-11-15T05:11:56;11.40;99.90
49441;DHT22;35317;51.978;6.296;2022-11-15T05:16:57;11.40;99.90
49441;DHT22;35317;51.978;6.296;2022-11-15T05:21:57;11.50;99.90
49441;DHT22;35317;51.978;6.296;2022-11-15T05:26:58;11.50;99.90
49441;DHT22;35317;51.978;6.296;2022-11-15T05:31:59;11.50;99.90
49441;DHT22;35317;51.978;6.296;2022-11-15T05:37:00;11.60;99.90
49441;DHT22;35317;51.978;6.296;2022-11-15T05:42:08;11.60;99.90
49441;DHT22;35317;51.978;6.296;2022-11-15T05:47:12;11.70;99.90
49441;DHT22;35317;51.978;6.296;2022-11-15T05:52:17;11.70;99.90
49441;DHT22;35317;51.978;6.296;2022-11-15T05:57:21;11.70;99.90
49441;DHT22;35317;51.978;6.296;2022-11-15T06:02:21;11.80;99.90
49441;DHT22;35317;51.978;6.296;2022-11-15T06:07:22;11.80;99.90
49441;DHT22;35317;51.978;6.296;2022-11-15T06:12:23;11.80;99.90
49441;DHT22;35317;51.978;6.296;2022-11-15T06:17:23;11.80;99.90
49441;DHT22;35317;51.978;6.296;2022-11-15T06:22:24;11.90;99.90
49441;DHT22;35317;51.978;6.296;2022-11-15T06:27:25;11.90;99.90
49441;DHT22;35317;51.978;6.296;2022-11-15T06:32:26;11.90;99.90
49441;DHT22;35317;51.978;6.296;2022-11-15T06:37:26;11.90;99.90
49441;DHT22;35317;51.978;6.296;2022-11-15T06:42:27;11.90;99.90
49441;DHT22;35317;51.978;6.296;2022-11-15T06:47:28;11.90;99.90
49441;DHT22;35317;51.978;6.296;2022-11-15T06:52:28;12.00;99.90
49441;DHT22;35317;51.978;6.296;2022-11-15T06:57:32;12.00;99.90
49441;DHT22;35317;51.978;6.296;2022-11-15T07:02:33;12.00;99.90
49441;DHT22;35317;51.978;6.296;2022-11-15T07:07:34;12.00;99.90
49441;DHT22;35317;51.978;6.296;2022-11-15T07:12:35;12.00;99.90
49441;DHT22;35317;51.978;6.296;2022-11-15T07:17:35;12.10;99.90
49441;DHT22;35317;51.978;6.296;2022-11-15T07:22:36;12.10;99.90
49441;DHT22;35317;51.978;6.296;2022-11-15T07:27:37;12.10;99.90
49441;DHT22;35317;51.978;6.296;2022-11-15T07:32:38;12.10;99.90
49441;DHT22;35317;51.978;6.296;2022-11-15T07:37:39;12.10;99.90
49441;DHT22;35317;51.978;6.296;2022-11-15T07:42:40;12.10;99.90
49441;DHT22;35317;51.978;6.296;2022-11-15T07:47:56;12.10;99.90
49441;DHT22;35317;51.978;6.296;2022-11-15T07:52:59;12.20;99.90
49441;DHT22;35317;51.978;6.296;2022-11-15T07:58:07;12.10;99.90
49441;DHT22;35317;51.978;6.296;2022-11-15T08:03:11;12.10;99.90
49441;DHT22;35317;51.978;6.296;2022-11-15T08:08:12;12.10;99.90
49441;DHT22;35317;51.978;6.296;2022-11-15T08:13:13;12.20;99.90
49441;DHT22;35317;51.978;6.296;2022-11-15T08:18:15;12.20;99.90
49441;DHT22;35317;51.978;6.296;2022-11-15T08:23:16;12.20;99.90
49441;DHT22;35317;51.978;6.296;2022-11-15T08:28:17;12.20;99.90
49441;DHT22;35317;51.978;6.296;2022-11-15T08:33:18;12.30;99.90
49441;DHT22;35317;51.978;6.296;2022-11-15T08:38:19;12.30;99.90
49441;DHT22;35317;51.978;6.296;2022-11-15T08:43:19;12.30;99.90
49441;DHT22;35317;51.978;6.296;2022-11-15T08:48:20;12.30;99.90
49441;DHT22;35317;51.978;6.296;2022-11-15T08:53:21;12.30;99.90
49441;DHT22;35317;51.978;6.296;2022-11-15T08:58:22;12.40;99.90
49441;DHT22;35317;51.978;6.296;2022-11-15T09:03:23;12.50;99.90
49441;DHT22;35317;51.978;6.296;2022-11-15T09:08:25;12.50;99.90
49441;DHT22;35317;51.978;6.296;2022-11-15T09:13:26;12.70;99.90
49441;DHT22;35317;51.978;6.296;2022-11-15T09:18:27;12.70;99.90
49441;DHT22;35317;51.978;6.296;2022-11-15T09:23:28;12.70;99.90
49441;DHT22;35317;51.978;6.296;2022-11-15T09:28:29;12.70;99.90
49441;DHT22;35317;51.978;6.296;2022-11-15T09:33:30;12.70;99.90
49441;DHT22;35317;51.978;6.296;2022-11-15T09:38:31;12.70;99.90
49441;DHT22;35317;51.978;6.296;2022-11-15T09:54:41;12.90;99.90
49441;DHT22;35317;51.978;6.296;2022-11-15T10:04:53;13.10;99.90
49441;DHT22;35317;51.978;6.296;2022-11-15T10:10:44;13.10;99.90
49441;DHT22;35317;51.978;6.296;2022-11-15T10:15:28;13.20;99.90
49441;DHT22;35317;51.978;6.296;2022-11-15T10:20:30;13.30;99.90
49441;DHT22;35317;51.978;6.296;2022-11-15T10:25:37;13.30;99.90
49441;DHT22;35317;51.978;6.296;2022-11-15T10:30:42;13.40;99.90
49441;DHT22;35317;51.978;6.296;2022-11-15T10:35:44;13.40;99.90
49441;DHT22;35317;51.978;6.296;2022-11-15T10:40:45;13.30;99.90
49441;DHT22;35317;51.978;6.296;2022-11-15T10:45:46;13.20;99.90
49441;DHT22;35317;51.978;6.296;2022-11-15T10:50:49;13.20;99.90
49441;DHT22;35317;51.978;6.296;2022-11-15T10:55:53;13.20;99.90
49441;DHT22;35317;51.978;6.296;2022-11-15T11:06:17;13.20;99.00
49441;DHT22;35317;51.978;6.296;2022-11-15T11:11:18;13.30;99.10
49441;DHT22;35317;51.978;6.296;2022-11-15T11:16:34;13.30;98.70
49441;DHT22;35317;51.978;6.296;2022-11-15T11:38:50;13.30;96.90
49441;DHT22;35317;51.978;6.296;2022-11-15T11:49:49;13.30;96.30
49441;DHT22;35317;51.978;6.296;2022-11-15T11:55:19;13.40;95.60
49441;DHT22;35317;51.978;6.296;2022-11-15T12:00:25;13.40;94.70
49441;DHT22;35317;51.978;6.296;2022-11-15T12:05:41;13.40;93.50
49441;DHT22;35317;51.978;6.296;2022-11-15T12:10:48;13.40;93.40
49441;DHT22;35317;51.978;6.296;2022-11-15T12:16:02;13.40;93.00
49441;DHT22;35317;51.978;6.296;2022-11-15T12:21:25;13.50;92.50
49441;DHT22;35317;51.978;6.296;2022-11-15T12:26:41;13.50;92.20
49441;DHT22;35317;51.978;6.296;2022-11-15T12:31:50;13.50;92.00
49441;DHT22;35317;51.978;6.296;2022-11-15T12:36:53;13.50;91.30
49441;DHT22;35317;51.978;6.296;2022-11-15T12:47:01;13.80;90.90
49441;DHT22;35317;51.978;6.296;2022-11-15T12:52:06;13.90;90.60
49441;DHT22;35317;51.978;6.296;2022-11-15T13:02:44;14.40;90.10
49441;DHT22;35317;51.978;6.296;2022-11-15T13:33:20;15.10;85.60
49441;DHT22;35317;51.978;6.296;2022-11-15T13:38:37;15.10;85.10
49441;DHT22;35317;51.978;6.296;2022-11-15T13:43:39;15.10;84.60
49441;DHT22;35317;51.978;6.296;2022-11-15T13:48:41;15.00;84.70
49441;DHT22;35317;51.978;6.296;2022-11-15T13:53:47;15.00;85.00
49441;DHT22;35317;51.978;6.296;2022-11-15T13:58:51;14.90;84.20
49441;DHT22;35317;51.978;6.296;2022-11-15T14:03:56;14.80;84.40
49441;DHT22;35317;51.978;6.296;2022-11-15T14:24:30;14.30;84.30
49441;DHT22;35317;51.978;6.296;2022-11-15T14:29:32;14.10;84.40
49441;DHT22;35317;51.978;6.296;2022-11-15T14:34:32;14.00;84.40
49441;DHT22;35317;51.978;6.296;2022-11-15T14:39:33;13.90;84.40
49441;DHT22;35317;51.978;6.296;2022-11-15T14:44:34;13.70;84.50
49441;DHT22;35317;51.978;6.296;2022-11-15T14:49:35;13.60;84.60
49441;DHT22;35317;51.978;6.296;2022-11-15T14:54:36;13.40;84.60
49441;DHT22;35317;51.978;6.296;2022-11-15T14:59:36;13.20;84.80
49441;DHT22;35317;51.978;6.296;2022-11-15T15:04:37;13.20;85.30
49441;DHT22;35317;51.978;6.296;2022-11-15T15:09:38;13.10;85.30
49441;DHT22;35317;51.978;6.296;2022-11-15T15:14:39;13.10;85.60
49441;DHT22;35317;51.978;6.296;2022-11-15T15:19:40;13.00;85.70
49441;DHT22;35317;51.978;6.296;2022-11-15T15:24:41;13.00;85.80
49441;DHT22;35317;51.978;6.296;2022-11-15T15:29:43;13.00;85.70
49441;DHT22;35317;51.978;6.296;2022-11-15T15:34:44;12.90;85.60
49441;DHT22;35317;51.978;6.296;2022-11-15T15:39:44;12.90;85.60
49441;DHT22;35317;51.978;6.296;2022-11-15T15:44:46;12.80;85.80
49441;DHT22;35317;51.978;6.296;2022-11-15T15:49:48;12.80;85.70
49441;DHT22;35317;51.978;6.296;2022-11-15T15:54:50;12.70;85.70
49441;DHT22;35317;51.978;6.296;2022-11-15T15:59:50;12.70;85.70
49441;DHT22;35317;51.978;6.296;2022-11-15T16:04:51;12.70;86.40
49441;DHT22;35317;51.978;6.296;2022-11-15T16:09:53;12.60;86.20
49441;DHT22;35317;51.978;6.296;2022-11-15T16:15:01;12.60;86.60
49441;DHT22;35317;51.978;6.296;2022-11-15T16:20:03;12.60;86.90
49441;DHT22;35317;51.978;6.296;2022-11-15T16:25:04;12.60;87.10
49441;DHT22;35317;51.978;6.296;2022-11-15T16:30:11;12.60;87.40
49441;DHT22;35317;51.978;6.296;2022-11-15T16:35:15;12.60;87.70
49441;DHT22;35317;51.978;6.296;2022-11-15T16:40:28;12.70;87.80
49441;DHT22;35317;51.978;6.296;2022-11-15T16:45:33;12.70;88.00
49441;DHT22;35317;51.978;6.296;2022-11-15T16:50:34;12.70;88.20
49441;DHT22;35317;51.978;6.296;2022-11-15T16:55:42;12.70;88.20
49441;DHT22;35317;51.978;6.296;2022-11-15T17:00:43;12.70;88.10
49441;DHT22;35317;51.978;6.296;2022-11-15T17:05:43;12.80;88.50
49441;DHT22;35317;51.978;6.296;2022-11-15T17:10:44;12.80;88.60
49441;DHT22;35317;51.978;6.296;2022-11-15T17:15:45;12.90;89.00
49441;DHT22;35317;51.978;6.296;2022-11-15T17:20:45;12.90;89.30
49441;DHT22;35317;51.978;6.296;2022-11-15T17:25:46;12.80;89.50
49441;DHT22;35317;51.978;6.296;2022-11-15T17:30:47;12.90;89.90
49441;DHT22;35317;51.978;6.296;2022-11-15T17:35:56;12.80;90.00
49441;DHT22;35317;51.978;6.296;2022-11-15T17:41:12;12.80;90.10
49441;DHT22;35317;51.978;6.296;2022-11-15T17:46:16;12.80;90.20
49441;DHT22;35317;51.978;6.296;2022-11-15T17:51:18;12.90;90.30
49441;DHT22;35317;51.978;6.296;2022-11-15T17:56:21;12.90;90.40
49441;DHT22;35317;51.978;6.296;2022-11-15T18:01:31;12.90;90.50
49441;DHT22;35317;51.978;6.296;2022-11-15T18:06:35;12.90;90.60
49441;DHT22;35317;51.978;6.296;2022-11-15T18:11:38;12.90;90.70
49441;DHT22;35317;51.978;6.296;2022-11-15T18:16:41;13.00;90.80
49441;DHT22;35317;51.978;6.296;2022-11-15T18:21:43;13.00;90.80
49441;DHT22;35317;51.978;6.296;2022-11-15T18:26:57;13.00;90.90
49441;DHT22;35317;51.978;6.296;2022-11-15T18:31:59;13.00;91.10
49441;DHT22;35317;51.978;6.296;2022-11-15T18:37:03;13.00;91.20
49441;DHT22;35317;51.978;6.296;2022-11-15T18:42:04;13.10;91.40
49441;DHT22;35317;51.978;6.296;2022-11-15T18:47:04;13.00;91.60
49441;DHT22;35317;51.978;6.296;2022-11-15T18:52:05;13.00;91.80
49441;DHT22;35317;51.978;6.296;2022-11-15T18:57:07;13.00;92.20
49441;DHT22;35317;51.978;6.296;2022-11-15T19:02:10;12.90;92.50
49441;DHT22;35317;51.978;6.296;2022-11-15T19:07:12;12.90;92.90
49441;DHT22;35317;51.978;6.296;2022-11-15T19:12:12;12.80;93.20
49441;DHT22;35317;51.978;6.296;2022-11-15T19:17:13;12.80;93.60
49441;DHT22;35317;51.978;6.296;2022-11-15T19:22:14;12.80;93.90
49441;DHT22;35317;51.978;6.296;2022-11-15T19:27:15;12.70;94.30
49441;DHT22;35317;51.978;6.296;2022-11-15T19:32:15;12.70;94.70
49441;DHT22;35317;51.978;6.296;2022-11-15T19:37:16;12.70;95.10
49441;DHT22;35317;51.978;6.296;2022-11-15T19:42:17;12.60;95.40
49441;DHT22;35317;51.978;6.296;2022-11-15T19:47:17;12.60;95.70
49441;DHT22;35317;51.978;6.296;2022-11-15T19:52:18;12.50;96.00
49441;DHT22;35317;51.978;6.296;2022-11-15T19:57:21;12.50;96.30
49441;DHT22;35317;51.978;6.296;2022-11-15T20:02:22;12.50;96.60
49441;DHT22;35317;51.978;6.296;2022-11-15T20:07:23;12.50;96.90
49441;DHT22;35317;51.978;6.296;2022-11-15T20:12:23;12.40;97.20
49441;DHT22;35317;51.978;6.296;2022-11-15T20:17:24;12.40;97.50
49441;DHT22;35317;51.978;6.296;2022-11-15T20:22:26;12.40;97.80
49441;DHT22;35317;51.978;6.296;2022-11-15T20:27:26;12.40;98.00
49441;DHT22;35317;51.978;6.296;2022-11-15T20:32:27;12.40;98.30
49441;DHT22;35317;51.978;6.296;2022-11-15T20:37:30;12.50;98.60
49441;DHT22;35317;51.978;6.296;2022-11-15T20:42:31;12.40;98.80
49441;DHT22;35317;51.978;6.296;2022-11-15T20:47:31;12.40;99.00
49441;DHT22;35317;51.978;6.296;2022-11-15T20:52:32;12.40;99.30
49441;DHT22;35317;51.978;6.296;2022-11-15T20:57:33;12.40;99.60
49441;DHT22;35317;51.978;6.296;2022-11-15T21:02:34;12.40;99.80
49441;DHT22;35317;51.978;6.296;2022-11-15T21:07:36;12.40;99.90
49441;DHT22;35317;51.978;6.296;2022-11-15T21:12:36;12.40;99.90
49441;DHT22;35317;51.978;6.296;2022-11-15T21:17:37;12.40;99.90
49441;DHT22;35317;51.978;6.296;2022-11-15T21:22:38;12.40;99.90
49441;DHT22;35317;51.978;6.296;2022-11-15T21:27:39;12.40;99.90
49441;DHT22;35317;51.978;6.296;2022-11-15T21:32:43;12.40;99.90
49441;DHT22;35317;51.978;6.296;2022-11-15T21:37:44;12.50;99.90
49441;DHT22;35317;51.978;6.296;2022-11-15T21:42:45;12.40;99.90
49441;DHT22;35317;51.978;6.296;2022-11-15T21:47:45;12.50;99.90
49441;DHT22;35317;51.978;6.296;2022-11-15T21:52:46;12.50;99.90
49441;DHT22;35317;51.978;6.296;2022-11-15T21:57:47;12.40;99.90
49441;DHT22;35317;51.978;6.296;2022-11-15T22:02:48;12.50;99.90
49441;DHT22;35317;51.978;6.296;2022-11-15T22:07:49;12.50;99.90
49441;DHT22;35317;51.978;6.296;2022-11-15T22:12:49;12.50;99.90
49441;DHT22;35317;51.978;6.296;2022-11-15T22:17:50;12.50;99.90
49441;DHT22;35317;51.978;6.296;2022-11-15T22:22:59;12.50;99.90
49441;DHT22;35317;51.978;6.296;2022-11-15T22:28:01;12.50;99.90
49441;DHT22;35317;51.978;6.296;2022-11-15T22:33:02;12.50;99.90
49441;DHT22;35317;51.978;6.296;2022-11-15T22:38:03;12.60;99.90
49441;DHT22;35317;51.978;6.296;2022-11-15T22:43:04;12.50;99.90
49441;DHT22;35317;51.978;6.296;2022-11-15T22:48:05;12.60;99.90
49441;DHT22;35317;51.978;6.296;2022-11-15T22:53:06;12.60;99.90
49441;DHT22;35317;51.978;6.296;2022-11-15T22:58:07;12.60;99.90
49441;DHT22;35317;51.978;6.296;2022-11-15T23:03:10;12.60;99.90
49441;DHT22;35317;51.978;6.296;2022-11-15T23:08:12;12.60;99.90
49441;DHT22;35317;51.978;6.296;2022-11-15T23:13:13;12.60;99.90
49441;DHT22;35317;51.978;6.296;2022-11-15T23:18:17;12.60;99.90
49441;DHT22;35317;51.978;6.296;2022-11-15T23:23:18;12.60;99.90
49441;DHT22;35317;51.978;6.296;2022-11-15T23:28:19;12.60;99.90
49441;DHT22;35317;51.978;6.296;2022-11-15T23:33:20;12.60;99.90
49441;DHT22;35317;51.978;6.296;2022-11-15T23:38:40;12.60;99.90
49441;DHT22;35317;51.978;6.296;2022-11-15T23:43:41;12.60;99.90
49441;DHT22;35317;51.978;6.296;2022-11-15T23:48:42;12.60;99.90
49441;DHT22;35317;51.978;6.296;2022-11-15T23:53:43;12.60;99.90
49441;DHT22;35317;51.978;6.296;2022-11-15T23:58:45;12.60;99.90
